createdAt,value
2018-05-13T00:00:11.374Z,3.10
2018-05-13T00:02:39.650Z,2.80
2018-05-13T00:05:07.914Z,2.77
2018-05-13T00:07:35.435Z,3.17
2018-05-13T00:10:02.934Z,3.07
2018-05-13T00:12:30.432Z,3.33
2018-05-13T00:14:57.911Z,3.27
2018-05-13T00:17:25.390Z,3.53
2018-05-13T00:19:52.895Z,3.40
2018-05-13T00:22:20.396Z,3.23
2018-05-13T00:24:47.900Z,3.30
2018-05-13T00:27:15.414Z,3.70
2018-05-13T00:29:42.953Z,3.43
2018-05-13T00:32:10.448Z,3.03
2018-05-13T00:34:37.959Z,2.90
2018-05-13T00:37:05.444Z,3.30
2018-05-13T00:39:32.903Z,3.67
2018-05-13T00:42:00.382Z,3.77
2018-05-13T00:44:27.862Z,3.10
2018-05-13T00:46:56.128Z,3.50
2018-05-13T00:49:23.591Z,4.03
2018-05-13T00:51:51.858Z,3.80
2018-05-13T00:54:31.121Z,3.43
2018-05-13T00:56:58.635Z,3.23
2018-05-13T00:59:26.913Z,3.50
2018-05-13T01:01:54.438Z,4.00
2018-05-13T01:04:21.938Z,4.30
2018-05-13T01:06:49.458Z,3.80
2018-05-13T01:09:16.971Z,3.53
2018-05-13T01:11:45.207Z,3.53
2018-05-13T01:14:12.734Z,3.80
2018-05-13T01:16:40.203Z,3.63
2018-05-13T01:19:07.682Z,3.60
2018-05-13T01:21:35.177Z,4.30
2018-05-13T01:24:03.420Z,3.33
2018-05-13T01:26:30.914Z,3.90
2018-05-13T01:28:59.159Z,3.97
2018-05-13T01:31:26.666Z,4.00
2018-05-13T01:33:54.181Z,3.27
2018-05-13T01:36:21.674Z,4.10
2018-05-13T01:38:49.151Z,3.23
2018-05-13T01:41:16.631Z,3.63
2018-05-13T01:43:44.113Z,3.50
2018-05-13T01:46:11.597Z,3.23
2018-05-13T01:48:39.871Z,3.90
2018-05-13T01:51:08.144Z,3.43
2018-05-13T01:53:36.393Z,3.20
2018-05-13T01:56:03.887Z,3.43
2018-05-13T01:58:32.158Z,3.60
2018-05-13T02:01:00.423Z,4.07
2018-05-13T02:03:27.929Z,3.30
2018-05-13T02:05:55.424Z,3.17
2018-05-13T02:08:22.894Z,3.50
2018-05-13T02:10:50.396Z,3.67
2018-05-13T02:13:17.892Z,3.87
2018-05-13T02:15:45.375Z,3.67
2018-05-13T02:18:13.620Z,3.80
2018-05-13T02:20:41.172Z,3.40
2018-05-13T02:23:08.664Z,3.70
2018-05-13T02:25:36.182Z,3.33
2018-05-13T02:28:03.673Z,3.77
2018-05-13T02:30:31.147Z,3.50
2018-05-13T02:32:59.447Z,3.83
2018-05-13T02:35:26.933Z,3.87
2018-05-13T02:37:54.417Z,3.57
2018-05-13T02:40:21.899Z,3.07
2018-05-13T02:42:50.158Z,4.03
2018-05-13T02:45:17.631Z,3.40
2018-05-13T02:47:45.891Z,3.40
2018-05-13T02:50:13.362Z,3.73
2018-05-13T02:52:40.842Z,4.20
2018-05-13T02:55:08.366Z,3.97
2018-05-13T02:57:35.842Z,4.03
2018-05-13T03:00:04.100Z,4.37
2018-05-13T03:02:31.582Z,4.07
2018-05-13T03:04:59.840Z,3.97
2018-05-13T03:07:28.121Z,3.87
2018-05-13T03:09:56.371Z,4.27
2018-05-13T03:12:23.880Z,3.93
2018-05-13T03:14:51.348Z,4.13
2018-05-13T03:17:18.822Z,4.07
2018-05-13T03:19:46.326Z,3.90
2018-05-13T03:22:13.835Z,4.07
2018-05-13T03:24:42.076Z,3.97
2018-05-13T03:27:10.351Z,4.10
2018-05-13T03:29:38.600Z,4.20
2018-05-13T03:32:06.095Z,4.07
2018-05-13T03:34:33.600Z,3.90
2018-05-13T03:37:01.111Z,3.90
2018-05-13T03:39:28.625Z,3.80
2018-05-13T03:41:56.121Z,3.37
2018-05-13T03:44:24.375Z,3.77
2018-05-13T03:46:51.844Z,3.40
2018-05-13T03:49:19.326Z,3.93
2018-05-13T03:51:46.815Z,3.70
2018-05-13T03:54:14.316Z,3.57
2018-05-13T03:56:42.574Z,3.20
2018-05-13T03:59:10.060Z,3.43
2018-05-13T04:01:38.322Z,3.60
2018-05-13T04:04:06.597Z,3.90
2018-05-13T04:06:34.089Z,4.00
2018-05-13T04:09:13.294Z,4.20
2018-05-13T04:11:53.522Z,4.23
2018-05-13T04:14:32.847Z,3.63
2018-05-13T04:17:00.354Z,3.70
2018-05-13T04:19:28.597Z,4.30
2018-05-13T04:21:56.086Z,3.87
2018-05-13T04:24:24.331Z,3.80
2018-05-13T04:26:51.835Z,4.23
2018-05-13T04:29:19.500Z,3.57
2018-05-13T04:31:47.061Z,4.00
2018-05-13T04:34:14.532Z,3.93
2018-05-13T04:36:42.039Z,3.97
2018-05-13T04:39:09.511Z,4.03
2018-05-13T04:41:37.775Z,3.77
2018-05-13T04:44:05.283Z,3.87
2018-05-13T04:46:32.747Z,3.60
2018-05-13T04:49:00.196Z,3.30
2018-05-13T04:51:27.661Z,3.60
2018-05-13T04:53:55.116Z,3.63
2018-05-13T04:56:22.591Z,3.43
2018-05-13T04:58:50.833Z,3.40
2018-05-13T05:01:18.318Z,3.67
2018-05-13T05:03:45.764Z,3.70
2018-05-13T05:06:13.220Z,4.20
2018-05-13T05:08:40.699Z,4.80
2018-05-13T05:11:08.943Z,4.50
2018-05-13T05:13:36.430Z,4.10
2018-05-13T05:16:04.672Z,4.47
2018-05-13T05:18:32.127Z,4.70
2018-05-13T05:20:59.600Z,4.50
2018-05-13T05:23:27.058Z,4.37
2018-05-13T05:25:54.533Z,4.40
2018-05-13T05:28:22.763Z,4.50
2018-05-13T05:30:50.239Z,4.07
2018-05-13T05:33:17.688Z,4.20
2018-05-13T05:35:45.211Z,3.93
2018-05-13T05:38:12.646Z,4.13
2018-05-13T05:40:40.896Z,3.57
2018-05-13T05:43:08.380Z,3.50
2018-05-13T05:45:36.607Z,3.53
2018-05-13T05:48:04.060Z,3.27
2018-05-13T05:50:31.544Z,3.20
2018-05-13T05:52:58.996Z,3.30
2018-05-13T05:55:26.460Z,3.10
2018-05-13T05:57:53.946Z,3.20
2018-05-13T06:00:22.191Z,3.60
2018-05-13T06:02:49.680Z,3.07
2018-05-13T06:05:17.920Z,3.27
2018-05-13T06:07:45.403Z,3.10
2018-05-13T06:10:12.880Z,2.60
2018-05-13T06:12:41.613Z,2.70
2018-05-13T06:15:09.102Z,2.80
2018-05-13T06:17:36.562Z,2.80
2018-05-13T06:20:04.038Z,2.47
2018-05-13T06:22:32.276Z,2.90
2018-05-13T06:24:59.804Z,2.53
2018-05-13T06:27:27.267Z,2.33
2018-05-13T06:29:55.338Z,2.33
2018-05-13T06:32:22.796Z,2.80
2018-05-13T06:34:50.291Z,2.57
2018-05-13T06:37:17.763Z,2.70
2018-05-13T06:39:45.297Z,2.60
2018-05-13T06:42:12.672Z,3.07
2018-05-13T06:44:40.153Z,2.50
2018-05-13T06:47:08.386Z,2.83
2018-05-13T06:49:35.847Z,2.60
2018-05-13T06:52:03.329Z,2.43
2018-05-13T06:54:30.769Z,3.40
2018-05-13T06:56:58.247Z,2.87
2018-05-13T06:59:26.025Z,3.13
2018-05-13T07:01:53.529Z,3.40
2018-05-13T07:04:20.990Z,3.30
2018-05-13T07:06:48.436Z,3.80
2018-05-13T07:09:15.895Z,3.60
2018-05-13T07:11:43.370Z,3.53
2018-05-13T07:14:10.873Z,3.17
2018-05-13T07:16:39.084Z,3.90
2018-05-13T07:19:06.533Z,4.30
2018-05-13T07:21:33.982Z,4.10
2018-05-13T07:24:01.463Z,4.40
2018-05-13T07:26:29.376Z,3.87
2018-05-13T07:28:56.830Z,4.27
2018-05-13T07:31:24.305Z,3.60
2018-05-13T07:33:51.767Z,4.00
2018-05-13T07:36:19.254Z,3.70
2018-05-13T07:38:46.748Z,3.50
2018-05-13T07:41:14.227Z,4.87
2018-05-13T07:43:41.707Z,4.50
2018-05-13T07:46:09.168Z,4.40
2018-05-13T07:48:36.628Z,4.87
2018-05-13T07:51:04.176Z,5.53
2018-05-13T07:53:31.586Z,6.63
2018-05-13T07:55:59.056Z,5.90
2018-05-13T07:58:26.540Z,6.67
2018-05-13T08:00:53.984Z,7.10
2018-05-13T08:03:21.490Z,6.67
2018-05-13T08:05:49.724Z,8.20
2018-05-13T08:08:17.297Z,7.13
2018-05-13T08:10:44.769Z,9.00
2018-05-13T08:13:12.216Z,7.97
2018-05-13T08:15:39.704Z,8.87
2018-05-13T08:18:07.168Z,9.33
2018-05-13T08:20:34.727Z,9.53
2018-05-13T08:23:02.095Z,10.13
2018-05-13T08:25:29.592Z,10.13
2018-05-13T08:27:57.052Z,11.17
2018-05-13T08:30:24.516Z,11.63
2018-05-13T08:32:51.986Z,11.07
2018-05-13T08:35:20.204Z,11.47
2018-05-13T08:37:47.694Z,11.07
2018-05-13T08:40:15.160Z,10.63
2018-05-13T08:42:42.640Z,11.30
2018-05-13T08:45:10.870Z,11.37
2018-05-13T08:47:38.984Z,12.67
2018-05-13T08:50:07.241Z,11.27
2018-05-13T08:52:36.212Z,11.10
2018-05-13T08:55:03.700Z,10.40
2018-05-13T08:57:31.149Z,11.53
2018-05-13T08:59:58.656Z,11.80
2018-05-13T09:02:26.108Z,12.20
2018-05-13T09:04:53.596Z,11.93
2018-05-13T09:07:21.048Z,11.97
2018-05-13T09:09:48.556Z,12.27
2018-05-13T09:12:16.780Z,12.40
2018-05-13T09:14:44.251Z,11.67
2018-05-13T09:17:11.708Z,10.83
2018-05-13T09:19:39.180Z,9.83
2018-05-13T09:22:06.652Z,9.90
2018-05-13T09:24:34.135Z,10.53
2018-05-13T09:27:01.598Z,10.80
2018-05-13T09:29:29.685Z,10.90
2018-05-13T09:31:57.236Z,11.50
2018-05-13T09:34:24.720Z,10.60
2018-05-13T09:36:52.177Z,9.00
2018-05-13T09:39:19.661Z,11.80
2018-05-13T09:41:47.148Z,11.03
2018-05-13T09:44:15.379Z,11.50
2018-05-13T09:46:42.884Z,11.87
2018-05-13T09:49:10.359Z,11.77
2018-05-13T09:51:37.837Z,10.60
2018-05-13T09:54:05.303Z,11.43
2018-05-13T09:56:32.757Z,11.73
2018-05-13T09:59:00.228Z,11.70
2018-05-13T10:01:27.725Z,11.30
2018-05-13T10:03:56.105Z,12.53
2018-05-13T10:06:24.353Z,11.80
2018-05-13T10:08:51.816Z,11.03
2018-05-13T10:11:19.296Z,14.57
2018-05-13T10:13:47.537Z,15.87
2018-05-13T10:16:15.040Z,15.53
2018-05-13T10:18:42.528Z,17.80
2018-05-13T10:21:10.010Z,16.40
2018-05-13T10:23:37.476Z,18.03
2018-05-13T10:26:04.972Z,17.03
2018-05-13T10:28:32.449Z,18.13
2018-05-13T10:30:59.924Z,18.13
2018-05-13T10:33:27.372Z,18.37
2018-05-13T10:35:54.860Z,17.07
2018-05-13T10:38:22.344Z,18.27
2018-05-13T10:40:49.846Z,18.20
2018-05-13T10:43:17.295Z,19.43
2018-05-13T10:45:44.788Z,19.67
2018-05-13T10:48:12.241Z,20.27
2018-05-13T10:50:39.716Z,20.70
2018-05-13T10:53:07.192Z,19.50
2018-05-13T10:55:35.432Z,18.60
2018-05-13T10:58:02.907Z,19.30
2018-05-13T11:00:30.364Z,21.63
2018-05-13T11:02:57.848Z,18.37
2018-05-13T11:05:26.096Z,18.83
2018-05-13T11:07:53.599Z,18.40
2018-05-13T11:10:21.072Z,18.80
2018-05-13T11:12:48.542Z,18.63
2018-05-13T11:15:16.027Z,17.77
2018-05-13T11:17:43.512Z,16.53
2018-05-13T11:20:11.767Z,15.97
2018-05-13T11:22:40.008Z,15.90
2018-05-13T11:25:07.471Z,17.20
2018-05-13T11:27:34.948Z,16.77
2018-05-13T11:30:02.435Z,17.60
2018-05-13T11:32:30.679Z,18.83
2018-05-13T11:34:58.136Z,18.80
2018-05-13T11:37:25.613Z,18.53
2018-05-13T11:39:53.911Z,16.30
2018-05-13T11:42:21.307Z,17.97
2018-05-13T11:44:48.769Z,18.03
2018-05-13T11:47:16.240Z,18.93
2018-05-13T11:49:43.700Z,19.53
2018-05-13T11:52:11.187Z,19.30
2018-05-13T11:54:39.419Z,17.67
2018-05-13T11:57:06.921Z,18.40
2018-05-13T11:59:35.648Z,19.63
2018-05-13T12:02:03.177Z,18.37
2018-05-13T12:04:30.588Z,19.10
2018-05-13T12:06:58.056Z,19.53
2018-05-13T12:09:25.552Z,18.83
2018-05-13T12:11:53.065Z,20.27
2018-05-13T12:14:20.520Z,20.57
2018-05-13T12:16:47.977Z,20.37
2018-05-13T12:19:15.456Z,20.17
2018-05-13T12:21:42.940Z,19.47
2018-05-13T12:24:11.143Z,20.20
2018-05-13T12:26:38.680Z,19.10
2018-05-13T12:29:06.191Z,19.33
2018-05-13T12:31:33.667Z,18.97
2018-05-13T12:34:01.915Z,18.53
2018-05-13T12:36:29.391Z,18.07
2018-05-13T12:38:56.865Z,18.30
2018-05-13T12:41:25.091Z,18.53
2018-05-13T12:43:52.576Z,18.57
2018-05-13T12:46:20.036Z,18.90
2018-05-13T12:48:47.517Z,20.03
2018-05-13T12:51:14.999Z,19.70
2018-05-13T12:53:42.464Z,19.93
2018-05-13T12:56:09.973Z,17.77
2018-05-13T12:58:37.391Z,17.47
2018-05-13T13:01:04.847Z,16.17
2018-05-13T13:03:32.332Z,16.47
2018-05-13T13:05:59.818Z,16.57
2018-05-13T13:08:28.027Z,16.90
2018-05-13T13:10:55.489Z,15.97
2018-05-13T13:13:22.977Z,15.57
2018-05-13T13:15:50.451Z,15.63
2018-05-13T13:18:17.919Z,16.67
2018-05-13T13:20:46.175Z,15.43
2018-05-13T13:23:13.657Z,15.40
2018-05-13T13:25:41.911Z,16.30
2018-05-13T13:28:09.363Z,14.83
2018-05-13T13:30:36.879Z,15.43
2018-05-13T13:33:04.356Z,14.73
2018-05-13T13:35:31.839Z,14.83
2018-05-13T13:37:59.324Z,14.33
2018-05-13T13:40:27.610Z,15.17
2018-05-13T13:42:55.824Z,14.70
2018-05-13T13:45:23.277Z,14.07
2018-05-13T13:47:50.744Z,16.67
2018-05-13T13:50:18.204Z,15.93
2018-05-13T13:52:45.673Z,14.57
2018-05-13T13:55:13.139Z,14.43
2018-05-13T13:57:40.593Z,14.77
2018-05-13T14:00:09.576Z,14.53
2018-05-13T14:02:37.841Z,14.57
2018-05-13T14:05:05.349Z,14.27
2018-05-13T14:07:33.595Z,13.87
2018-05-13T14:10:01.091Z,12.93
2018-05-13T14:12:28.567Z,14.47
2018-05-13T14:14:56.024Z,13.93
2018-05-13T14:17:23.479Z,14.90
2018-05-13T14:19:50.953Z,14.70
2018-05-13T14:22:18.428Z,13.97
2018-05-13T14:24:45.917Z,14.00
2018-05-13T14:27:14.131Z,12.77
2018-05-13T14:29:42.540Z,13.57
2018-05-13T14:32:10.021Z,13.60
2018-05-13T14:34:37.488Z,12.93
2018-05-13T14:37:05.712Z,12.33
2018-05-13T14:39:33.172Z,12.60
2018-05-13T14:42:01.402Z,13.73
2018-05-13T14:44:29.622Z,13.73
2018-05-13T14:46:57.081Z,12.80
2018-05-13T14:49:24.531Z,12.63
2018-05-13T14:51:52.012Z,12.70
2018-05-13T14:54:19.479Z,13.27
2018-05-13T14:56:46.972Z,12.23
2018-05-13T14:59:15.324Z,11.93
2018-05-13T15:01:43.576Z,11.73
2018-05-13T15:04:11.028Z,11.43
2018-05-13T15:06:39.856Z,12.60
2018-05-13T15:09:08.147Z,11.27
2018-05-13T15:11:36.388Z,12.10
2018-05-13T15:14:03.867Z,10.60
2018-05-13T15:16:32.100Z,11.97
2018-05-13T15:18:59.543Z,12.77
2018-05-13T15:21:26.999Z,12.80
2018-05-13T15:23:54.483Z,12.53
2018-05-13T15:26:21.940Z,12.87
2018-05-13T15:28:49.424Z,14.13
2018-05-13T15:31:17.663Z,13.63
2018-05-13T15:33:45.841Z,14.07
2018-05-13T15:36:13.323Z,13.17
2018-05-13T15:38:40.831Z,13.00
2018-05-13T15:41:08.290Z,13.03
2018-05-13T15:43:35.760Z,13.60
2018-05-13T15:46:03.235Z,13.07
2018-05-13T15:48:30.720Z,14.13
2018-05-13T15:50:58.945Z,13.73
2018-05-13T15:53:26.435Z,12.93
2018-05-13T15:55:54.875Z,12.73
2018-05-13T15:58:22.328Z,12.97
2018-05-13T16:00:49.812Z,13.73
2018-05-13T16:03:17.267Z,14.17
2018-05-13T16:05:44.728Z,13.23
2018-05-13T16:08:12.211Z,13.97
2018-05-13T16:10:39.683Z,13.67
2018-05-13T16:13:07.940Z,15.27
2018-05-13T16:15:35.415Z,14.80
2018-05-13T16:18:03.680Z,14.93
2018-05-13T16:20:31.147Z,17.57
2018-05-13T16:22:59.403Z,17.93
2018-05-13T16:25:26.880Z,18.13
2018-05-13T16:27:55.112Z,19.47
2018-05-13T16:30:23.350Z,20.93
2018-05-13T16:32:51.580Z,21.57
2018-05-13T16:35:19.040Z,20.90
2018-05-13T16:37:46.497Z,21.83
2018-05-13T16:40:13.964Z,19.13
2018-05-13T16:42:41.417Z,21.73
2018-05-13T16:45:08.888Z,22.80
2018-05-13T16:47:37.137Z,23.27
2018-05-13T16:50:04.616Z,23.53
2018-05-13T16:52:32.087Z,22.73
2018-05-13T16:55:00.352Z,22.40
2018-05-13T16:57:28.607Z,23.80
2018-05-13T16:59:56.193Z,24.63
2018-05-13T17:02:23.676Z,25.47
2018-05-13T17:04:51.182Z,26.30
2018-05-13T17:07:18.656Z,26.97
2018-05-13T17:09:46.112Z,26.77
2018-05-13T17:12:13.611Z,27.63
2018-05-13T17:14:41.069Z,27.53
2018-05-13T17:17:08.563Z,29.63
2018-05-13T17:19:35.976Z,28.80
2018-05-13T17:22:03.457Z,28.97
2018-05-13T17:24:30.915Z,27.30
2018-05-13T17:26:58.392Z,28.27
2018-05-13T17:29:26.248Z,26.83
2018-05-13T17:31:53.736Z,25.80
2018-05-13T17:34:21.232Z,25.47
2018-05-13T17:36:48.704Z,26.07
2018-05-13T17:39:16.249Z,27.53
2018-05-13T17:41:43.655Z,26.30
2018-05-13T17:44:11.105Z,25.27
2018-05-13T17:46:39.337Z,26.03
2018-05-13T17:49:06.796Z,24.50
2018-05-13T17:51:34.283Z,25.20
2018-05-13T17:54:01.787Z,24.50
2018-05-13T17:56:29.235Z,25.57
2018-05-13T17:58:56.702Z,26.60
2018-05-13T18:01:24.933Z,25.93
2018-05-13T18:03:52.403Z,23.90
2018-05-13T18:06:20.660Z,25.70
2018-05-13T18:08:48.143Z,26.50
2018-05-13T18:11:15.600Z,27.77
2018-05-13T18:13:43.055Z,27.23
2018-05-13T18:16:10.548Z,27.60
2018-05-13T18:18:38.942Z,26.27
2018-05-13T18:21:06.259Z,27.00
2018-05-13T18:23:33.748Z,27.57
2018-05-13T18:26:01.207Z,27.53
2018-05-13T18:28:29.428Z,27.63
2018-05-13T18:30:56.910Z,28.40
2018-05-13T18:33:24.392Z,26.90
2018-05-13T18:35:52.604Z,25.83
2018-05-13T18:38:20.117Z,26.77
2018-05-13T18:40:48.344Z,25.37
2018-05-13T18:43:15.819Z,26.73
2018-05-13T18:45:43.281Z,26.80
2018-05-13T18:48:10.740Z,24.60
2018-05-13T18:50:38.225Z,25.07
2018-05-13T18:53:06.473Z,25.90
2018-05-13T18:55:33.976Z,26.07
2018-05-13T18:58:01.428Z,26.23
2018-05-13T19:00:29.187Z,25.63
2018-05-13T19:02:56.648Z,25.90
2018-05-13T19:05:24.103Z,25.80
2018-05-13T19:07:51.564Z,26.53
2018-05-13T19:12:53.072Z,24.60
2018-05-13T19:15:20.565Z,25.67
2018-05-13T19:17:48.795Z,25.45
2018-05-13T19:20:16.251Z,27.40
2018-05-13T19:22:43.721Z,25.60
2018-05-13T19:25:11.209Z,26.13
2018-05-13T19:27:38.677Z,26.07
2018-05-13T19:30:06.903Z,25.13
2018-05-13T19:32:34.373Z,26.50
2018-05-13T19:35:01.836Z,25.65
2018-05-13T19:37:29.302Z,28.20
2018-05-13T19:39:56.777Z,31.03
2018-05-13T19:42:25.020Z,28.83
2018-05-13T19:44:52.484Z,29.63
2018-05-13T19:47:19.954Z,27.80
2018-05-13T19:49:47.416Z,27.98
2018-05-13T19:52:14.895Z,30.10
2018-05-13T19:54:43.148Z,28.07
2018-05-13T19:57:10.656Z,31.83
2018-05-13T19:59:38.143Z,31.43
2018-05-13T20:02:05.599Z,31.93
2018-05-13T20:04:33.076Z,33.03
2018-05-13T20:07:00.565Z,32.17
2018-05-13T20:09:28.804Z,31.73
2018-05-13T20:11:56.279Z,35.47
2018-05-13T20:14:24.532Z,33.67
2018-05-13T20:16:51.996Z,34.03
2018-05-13T20:19:19.471Z,32.47
2018-05-13T20:21:47.729Z,36.17
2018-05-13T20:24:15.204Z,33.87
2018-05-13T20:26:43.437Z,35.70
2018-05-13T20:29:10.924Z,35.97
2018-05-13T20:31:38.384Z,35.83
2018-05-13T20:34:05.848Z,33.90
2018-05-13T20:36:33.341Z,37.50
2018-05-13T20:39:00.808Z,36.13
2018-05-13T20:41:28.303Z,37.33
2018-05-13T20:43:55.771Z,36.40
2018-05-13T20:46:23.235Z,37.70
2018-05-13T20:48:50.730Z,37.77
2018-05-13T20:51:18.291Z,35.95
2018-05-13T20:53:45.695Z,36.50
2018-05-13T20:56:13.165Z,36.40
2018-05-13T20:58:40.648Z,36.57
2018-05-13T21:01:08.136Z,36.50
2018-05-13T21:03:35.624Z,35.77
2018-05-13T21:06:03.099Z,39.27
2018-05-13T21:08:31.328Z,34.50
2018-05-13T21:10:58.829Z,35.07
2018-05-13T21:13:27.079Z,37.03
2018-05-13T21:15:54.570Z,35.77
2018-05-13T21:18:22.825Z,33.10
2018-05-13T21:20:50.324Z,36.13
2018-05-13T21:23:17.788Z,35.10
2018-05-13T21:25:45.265Z,31.87
2018-05-13T21:28:12.740Z,29.80
2018-05-13T21:30:40.200Z,28.97
2018-05-13T21:33:07.692Z,28.97
2018-05-13T21:35:35.172Z,27.40
2018-05-13T21:38:02.648Z,28.15
2018-05-13T21:40:30.127Z,26.43
2018-05-13T21:42:57.594Z,24.87
2018-05-13T21:45:25.048Z,26.77
2018-05-13T21:47:52.535Z,25.57
2018-05-13T21:50:20.821Z,25.63
2018-05-13T21:52:48.300Z,25.88
2018-05-13T21:55:15.778Z,24.08
2018-05-13T21:57:43.281Z,27.07
2018-05-13T22:00:10.770Z,27.67
2018-05-13T22:02:38.267Z,26.87
2018-05-13T22:05:05.750Z,29.20
2018-05-13T22:07:34.007Z,25.98
2018-05-13T22:10:01.492Z,25.67
2018-05-13T22:12:29.744Z,28.77
2018-05-13T22:14:57.239Z,27.03
2018-05-13T22:17:24.765Z,28.48
2018-05-13T22:19:53.003Z,27.52
2018-05-13T22:22:20.485Z,28.40
2018-05-13T22:24:47.983Z,28.48
2018-05-13T22:27:16.239Z,27.85
2018-05-13T22:29:43.749Z,24.52
2018-05-13T22:32:11.267Z,26.90
2018-05-13T22:34:39.503Z,27.45
2018-05-13T22:37:06.968Z,28.20
2018-05-13T22:39:34.460Z,27.23
2018-05-13T22:42:02.697Z,28.20
2018-05-13T22:44:30.176Z,28.75
2018-05-13T22:46:57.667Z,26.40
2018-05-13T22:49:25.142Z,26.73
2018-05-13T22:51:52.636Z,24.10
2018-05-13T22:54:20.877Z,25.10
2018-05-13T22:56:48.360Z,26.17
2018-05-13T22:59:16.066Z,25.98
2018-05-13T23:01:44.292Z,25.90
2018-05-13T23:04:11.777Z,26.20
2018-05-13T23:06:39.252Z,24.52
2018-05-13T23:09:06.731Z,27.03
2018-05-13T23:11:34.231Z,26.48
2018-05-13T23:14:01.711Z,26.25
2018-05-13T23:16:29.242Z,26.08
2018-05-13T23:18:56.749Z,27.37
2018-05-13T23:21:25.008Z,26.33
2018-05-13T23:23:52.491Z,26.98
2018-05-13T23:26:20.751Z,25.88
2018-05-13T23:28:48.227Z,26.12
2018-05-13T23:31:15.717Z,26.23
2018-05-13T23:33:43.181Z,25.17
2018-05-13T23:36:10.673Z,25.77
2018-05-13T23:38:38.182Z,25.55
2018-05-13T23:41:05.673Z,25.35
2018-05-13T23:43:33.163Z,23.97
2018-05-13T23:46:01.409Z,22.95
2018-05-13T23:48:28.883Z,26.08
2018-05-13T23:50:57.112Z,25.10
2018-05-13T23:53:24.597Z,25.60
2018-05-13T23:55:52.065Z,27.40
2018-05-13T23:58:19.551Z,28.17
